»·PEaware :: DAL308 KMSP-EHAM

DAL308 :: KMSP-EHAM

FLIGHT INFORMATION

Flight Status: Arrived
Operator:
Delta Air Lines
More flights by this operator :: More flights under this callsign
Pilot: Michael Anderson (15967)
Aircraft: BOEING 757-200
(B752)
More flights by this aircraft type
Origin: KMSP Minneapolis-St Paul Intl
United States
Destination: EHAM Schiphol
Netherlands
More flights between these airports :: More routes between these airports
Route: WLSTN SSM MOFAT UAC YYR JANJO 5650W 5840W 5930W 5820W SUNOT KESIX MIMKU REMSI L603 LAMSO LAMS2A
File this flight plan on PilotEdge
Remarks:
Altitude:
(Current/Filed)
31,000ft
Speed:
(Current/Filed)
450kts
Departed: 22-Jul-17 01:33 PM
Arrived: 22-Jul-17 09:34 PM
Distance/Time
Traveled:
851nm/8:01
Distance/Time
To Go:
Arrived

Flight Plot

Page will automatically refresh every two minutes.

Flight plan parsing failed; only flown route is shown


Map Options




Map Legend


Flown Route
Filed Route
Departure Airport
Arrival Airport
Navaid (VOR, NDB)
Fix

Horizontal Profiles

Position Reports

Time Latitude Longitude Heading Altitude Ground
Speed
22-Jul-17 13:19 44.881209 -93.213020 42 827ft 2kts
22-Jul-17 13:20 44.880749 -93.213609 42 826ft 2kts
22-Jul-17 13:21 44.880537 -93.214229 93 827ft 2kts
22-Jul-17 13:22 44.880578 -93.214512 121 827ft 0kts
22-Jul-17 13:23 44.880578 -93.214512 121 827ft 0kts
22-Jul-17 13:24 44.880578 -93.214512 121 827ft 0kts
22-Jul-17 13:25 44.880578 -93.214512 121 827ft 0kts
22-Jul-17 13:26 44.880578 -93.214512 121 827ft 0kts
22-Jul-17 13:27 44.880578 -93.214512 121 827ft 0kts
22-Jul-17 13:28 44.880578 -93.214512 121 827ft 0kts
22-Jul-17 13:29 44.880578 -93.214512 121 827ft 0kts
22-Jul-17 13:30 44.880578 -93.214512 121 827ft 0kts
22-Jul-17 13:31 44.880578 -93.214512 121 827ft 0kts
22-Jul-17 13:32 44.880578 -93.214512 121 827ft 0kts
22-Jul-17 13:33 44.880542 -93.214429 121 827ft 0kts
22-Jul-17 13:34 44.876577 -93.205302 120 815ft 37kts
22-Jul-17 13:35 44.874233 -93.200865 199 810ft 11kts
22-Jul-17 13:36 44.878495 -93.212661 301 825ft 118kts
22-Jul-17 13:37 44.910143 -93.267404 338 2299ft 221kts
22-Jul-17 13:38 44.953193 -93.209932 98 4479ft 272kts
22-Jul-17 13:39 44.942199 -93.101051 98 7403ft 288kts
22-Jul-17 13:40 44.939749 -92.986953 76 10128ft 304kts
22-Jul-17 13:41 44.969904 -92.861170 67 11232ft 379kts
22-Jul-17 13:42 45.010886 -92.714234 66 13558ft 413kts
22-Jul-17 13:43 45.053765 -92.561300 65 16161ft 428kts
22-Jul-17 13:44 45.098412 -92.403038 64 18467ft 442kts
22-Jul-17 13:45 45.143072 -92.242243 65 20315ft 460kts
22-Jul-17 13:46 45.190078 -92.069669 65 22066ft 478kts
22-Jul-17 13:47 45.238352 -91.891370 65 23689ft 494kts
22-Jul-17 13:48 45.288501 -91.707632 65 25218ft 509kts
22-Jul-17 13:49 45.339732 -91.517028 65 26602ft 523kts
22-Jul-17 13:50 45.391780 -91.323004 66 27862ft 536kts
22-Jul-17 13:51 45.444569 -91.123479 66 28983ft 548kts
22-Jul-17 13:52 45.489789 -90.915220 73 30235ft 556kts
22-Jul-17 13:53 45.526686 -90.701688 74 30884ft 553kts
22-Jul-17 13:54 45.560577 -90.490626 74 30887ft 541kts
22-Jul-17 13:55 45.595056 -90.287397 74 30880ft 541kts
22-Jul-17 13:56 45.628942 -90.078947 75 30885ft 541kts
22-Jul-17 13:57 45.662491 -89.869998 74 30887ft 541kts
22-Jul-17 13:58 45.695965 -89.660359 74 30890ft 541kts
22-Jul-17 13:59 45.729230 -89.452445 74 30921ft 522kts
22-Jul-17 14:00 45.760690 -89.255821 76 30910ft 521kts
22-Jul-17 14:01 45.791345 -89.053485 76 30886ft 521kts
22-Jul-17 14:02 45.820960 -88.854316 75 30889ft 506kts
22-Jul-17 14:03 45.850974 -88.653734 75 30867ft 520kts
22-Jul-17 14:04 45.881417 -88.451751 75 30863ft 519kts
22-Jul-17 14:05 45.910340 -88.257172 76 30856ft 519kts
22-Jul-17 14:06 45.940199 -88.052762 76 30858ft 519kts
22-Jul-17 14:07 45.969214 -87.849887 76 30859ft 519kts
22-Jul-17 14:08 45.997796 -87.646678 76 30888ft 518kts
22-Jul-17 14:09 46.025773 -87.444144 77 30890ft 518kts
22-Jul-17 14:10 46.053269 -87.242009 77 30883ft 518kts
22-Jul-17 14:11 46.080768 -87.039593 77 30885ft 518kts
22-Jul-17 14:12 46.107710 -86.837174 77 30888ft 517kts
22-Jul-17 14:13 46.134165 -86.633812 78 30890ft 517kts
22-Jul-17 14:14 46.159985 -86.430144 77 30891ft 517kts
22-Jul-17 14:15 46.186033 -86.229199 78 30884ft 517kts
22-Jul-17 14:16 46.211818 -86.024822 77 30887ft 519kts
22-Jul-17 14:17 46.236326 -85.819869 77 30888ft 520kts
22-Jul-17 14:18 46.260803 -85.614046 77 30890ft 520kts
22-Jul-17 14:19 46.286120 -85.408262 76 30892ft 520kts
22-Jul-17 14:20 46.310731 -85.203528 77 30885ft 522kts
22-Jul-17 14:21 46.330962 -85.031290 77 30886ft 522kts
22-Jul-17 14:22 46.354674 -84.824278 77 30914ft 523kts
22-Jul-17 14:23 46.377994 -84.616916 77 30917ft 523kts
22-Jul-17 14:24 46.405382 -84.368864 77 30931ft 545kts
22-Jul-17 14:25 46.455340 -84.168511 60 30915ft 534kts
22-Jul-17 14:26 46.506270 -84.004087 60 30913ft 534kts
22-Jul-17 14:27 46.566100 -83.807652 60 30915ft 534kts
22-Jul-17 14:28 46.625423 -83.611230 60 30915ft 532kts
22-Jul-17 14:29 46.684568 -83.413494 60 30920ft 533kts
22-Jul-17 14:30 46.742540 -83.216705 61 30909ft 534kts
22-Jul-17 14:31 46.801055 -83.017754 61 30911ft 534kts
22-Jul-17 14:32 46.858919 -82.819673 61 30993ft 532kts
22-Jul-17 14:33 46.916635 -82.620511 60 30999ft 531kts
22-Jul-17 14:34 46.973682 -82.422221 61 31001ft 532kts
22-Jul-17 14:35 47.030111 -82.224229 62 30987ft 532kts
22-Jul-17 14:36 47.086642 -82.024377 62 30964ft 533kts
22-Jul-17 14:37 47.142711 -81.824480 62 30971ft 533kts
22-Jul-17 14:38 47.198589 -81.623596 61 30974ft 533kts
22-Jul-17 14:39 47.254324 -81.421526 61 30976ft 532kts
22-Jul-17 14:40 47.308108 -81.224906 62 30965ft 533kts
22-Jul-17 14:41 47.362748 -81.022410 62 32374ft 521kts
22-Jul-17 14:42 47.415303 -80.825960 62 33420ft 519kts
22-Jul-17 14:43 47.468261 -80.627135 62 34397ft 517kts
22-Jul-17 14:44 47.519301 -80.430279 61 35338ft 514kts
22-Jul-17 14:45 47.570090 -80.236304 62 35871ft 515kts
22-Jul-17 14:46 47.621543 -80.038336 62 36316ft 516kts
22-Jul-17 14:47 47.672598 -79.840267 61 36655ft 517kts
22-Jul-17 14:48 47.723597 -79.640645 61 36937ft 518kts
22-Jul-17 14:49 47.774349 -79.440327 61 36982ft 521kts
22-Jul-17 14:50 47.823869 -79.243117 62 36969ft 527kts
22-Jul-17 14:51 47.882898 -79.043552 60 36777ft 534kts
22-Jul-17 14:52 47.936457 -78.835898 62 36814ft 541kts
22-Jul-17 14:53 47.988332 -78.624783 63 36850ft 544kts
22-Jul-17 14:54 48.039919 -78.411972 63 36899ft 547kts
22-Jul-17 14:55 48.089785 -78.204268 64 36886ft 549kts
22-Jul-17 14:56 48.139623 -77.994636 64 36894ft 550kts
22-Jul-17 14:57 48.190566 -77.778269 64 36926ft 551kts
22-Jul-17 14:58 48.240932 -77.562201 64 36974ft 552kts
22-Jul-17 14:59 48.290579 -77.347069 65 37041ft 552kts
22-Jul-17 15:00 48.340235 -77.129728 65 37020ft 553kts
22-Jul-17 15:01 48.380715 -76.906572 67 37034ft 554kts
22-Jul-17 15:02 48.427555 -76.686210 65 37064ft 553kts
22-Jul-17 15:03 48.475814 -76.466753 65 37110ft 552kts
22-Jul-17 15:04 48.523347 -76.249392 66 37124ft 553kts
22-Jul-17 15:05 48.571023 -76.029094 66 37110ft 553kts
22-Jul-17 15:06 48.618206 -75.808760 66 37118ft 553kts
22-Jul-17 15:07 48.665038 -75.587685 66 37146ft 553kts
22-Jul-17 15:08 48.711496 -75.365954 66 37194ft 553kts
22-Jul-17 15:09 48.756880 -75.146993 67 37164ft 553kts
22-Jul-17 15:10 48.802457 -74.924616 67 37152ft 553kts
22-Jul-17 15:11 48.847593 -74.701900 67 37161ft 554kts
22-Jul-17 15:12 48.892255 -74.479005 67 37192ft 554kts
22-Jul-17 15:13 48.935879 -74.258854 68 37197ft 554kts
22-Jul-17 15:14 48.979784 -74.034647 68 37168ft 554kts
22-Jul-17 15:15 49.023435 -73.809122 68 37161ft 554kts
22-Jul-17 15:16 49.066420 -73.584385 68 37176ft 554kts
22-Jul-17 15:17 49.108191 -73.363397 68 37215ft 554kts
22-Jul-17 15:18 49.149624 -73.141632 68 37206ft 555kts
22-Jul-17 15:19 49.203263 -72.925270 47 37215ft 533kts
22-Jul-17 15:20 49.286941 -72.739526 48 37264ft 533kts
22-Jul-17 15:21 49.367724 -72.548698 48 37309ft 534kts
22-Jul-17 15:22 49.447570 -72.357289 48 37369ft 534kts
22-Jul-17 15:23 49.526005 -72.167763 49 37342ft 534kts
22-Jul-17 15:24 49.605464 -71.974343 49 37335ft 535kts
22-Jul-17 15:25 49.684390 -71.780807 49 37345ft 535kts
22-Jul-17 15:26 49.763116 -71.586335 49 37370ft 535kts
22-Jul-17 15:27 49.841712 -71.390914 52 37406ft 535kts
22-Jul-17 15:28 49.918661 -71.198038 55 37415ft 535kts
22-Jul-17 15:29 49.996500 -71.001282 55 37419ft 535kts
22-Jul-17 15:30 50.073882 -70.804326 55 37440ft 534kts
22-Jul-17 15:31 50.149417 -70.610678 55 37459ft 534kts
22-Jul-17 15:32 50.225918 -70.413063 56 37486ft 533kts
22-Jul-17 15:33 50.300338 -70.219385 57 37479ft 533kts
22-Jul-17 15:34 50.375865 -70.021328 57 37468ft 532kts
22-Jul-17 15:35 50.451379 -69.821759 57 37473ft 532kts
22-Jul-17 15:36 50.526439 -69.622089 59 37513ft 530kts
22-Jul-17 15:37 50.599734 -69.425248 59 37589ft 519kts
22-Jul-17 15:38 50.670576 -69.233629 60 37565ft 514kts
22-Jul-17 15:39 50.741883 -69.039423 60 37591ft 509kts
22-Jul-17 15:40 50.812249 -68.846197 60 37540ft 509kts
22-Jul-17 15:41 50.882224 -68.652667 60 37554ft 508kts
22-Jul-17 15:42 50.952046 -68.458077 60 37579ft 507kts
22-Jul-17 15:43 51.018580 -68.271279 61 37598ft 507kts
22-Jul-17 15:44 51.087361 -68.076693 61 37608ft 506kts
22-Jul-17 15:45 51.154039 -67.886623 61 37601ft 506kts
22-Jul-17 15:46 51.222115 -67.691084 61 37597ft 506kts
22-Jul-17 15:47 51.289803 -67.495147 61 37601ft 506kts
22-Jul-17 15:48 51.356108 -67.301695 62 37617ft 503kts
22-Jul-17 15:49 51.422882 -67.105405 62 37578ft 504kts
22-Jul-17 15:50 51.489329 -66.908516 62 37569ft 503kts
22-Jul-17 15:51 51.555571 -66.710678 62 37573ft 502kts
22-Jul-17 15:52 51.630639 -66.522440 59 37595ft 501kts
22-Jul-17 15:53 51.697199 -66.330579 62 37616ft 501kts
22-Jul-17 15:54 51.761981 -66.134130 62 37617ft 500kts
22-Jul-17 15:55 51.826548 -65.935564 62 37625ft 500kts
22-Jul-17 15:56 51.890644 -65.736455 63 37641ft 500kts
22-Jul-17 15:57 51.950984 -65.533983 64 37692ft 498kts
22-Jul-17 15:58 52.009590 -65.334638 65 37685ft 498kts
22-Jul-17 15:59 52.068599 -65.132196 65 37695ft 498kts
22-Jul-17 16:00 52.125352 -64.935812 65 37699ft 498kts
22-Jul-17 16:01 52.184190 -64.730475 65 37690ft 497kts
22-Jul-17 16:02 52.242129 -64.526513 65 37690ft 497kts
22-Jul-17 16:03 52.298495 -64.326368 66 37695ft 497kts
22-Jul-17 16:04 52.355343 -64.122757 66 37684ft 496kts
22-Jul-17 16:05 52.412141 -63.917534 66 37680ft 496kts
22-Jul-17 16:06 52.468689 -63.711409 66 37685ft 496kts
22-Jul-17 16:07 52.524830 -63.504906 66 37724ft 494kts
22-Jul-17 16:08 52.579340 -63.302630 67 37702ft 495kts
22-Jul-17 16:09 52.634462 -63.096249 67 37702ft 495kts
22-Jul-17 16:10 52.689191 -62.889468 67 37709ft 495kts
22-Jul-17 16:11 52.743678 -62.681724 67 37722ft 495kts
22-Jul-17 16:12 52.797999 -62.472688 67 37742ft 494kts
22-Jul-17 16:13 52.850059 -62.270536 68 37756ft 494kts
22-Jul-17 16:14 52.903345 -62.061704 68 37764ft 493kts
22-Jul-17 16:15 52.956315 -61.852155 68 37777ft 493kts
22-Jul-17 16:16 53.008809 -61.642518 68 37797ft 493kts
22-Jul-17 16:17 53.050012 -61.427448 73 37832ft 490kts
22-Jul-17 16:18 53.095908 -61.219601 69 37870ft 490kts
22-Jul-17 16:19 53.144420 -61.017046 69 37845ft 490kts
22-Jul-17 16:20 53.194933 -60.806818 69 37839ft 489kts
22-Jul-17 16:21 53.245166 -60.596083 69 37838ft 489kts
22-Jul-17 16:22 53.295041 -60.384816 69 37843ft 489kts
22-Jul-17 16:23 53.343081 -60.179421 69 37843ft 488kts
22-Jul-17 16:24 53.391975 -59.968407 69 37831ft 489kts
22-Jul-17 16:25 53.440733 -59.755866 69 37831ft 489kts
22-Jul-17 16:26 53.488982 -59.543410 69 37836ft 489kts
22-Jul-17 16:27 53.536160 -59.333592 70 37845ft 489kts
22-Jul-17 16:28 53.583632 -59.120265 70 37842ft 489kts
22-Jul-17 16:29 53.633727 -58.907869 59 37838ft 490kts
22-Jul-17 16:30 53.692252 -58.701782 69 37867ft 489kts
22-Jul-17 16:31 53.740493 -58.486996 70 37883ft 490kts
22-Jul-17 16:32 53.785317 -58.278582 71 37898ft 490kts
22-Jul-17 16:33 53.831344 -58.061319 71 37904ft 490kts
22-Jul-17 16:34 53.876915 -57.843748 71 37915ft 491kts
22-Jul-17 16:35 53.922091 -57.625702 71 37933ft 491kts
22-Jul-17 16:36 53.966969 -57.406676 71 37958ft 492kts
22-Jul-17 16:37 53.983166 -57.185015 103 37995ft 482kts
22-Jul-17 16:38 53.921902 -56.992806 141 38035ft 462kts
22-Jul-17 16:39 53.809043 -56.908686 179 37995ft 443kts
22-Jul-17 16:40 53.710173 -56.938337 194 37983ft 437kts
22-Jul-17 16:41 53.588563 -56.949178 181 38010ft 443kts
22-Jul-17 16:42 53.465312 -56.938313 179 38020ft 445kts
22-Jul-17 16:43 53.342127 -56.924069 179 38014ft 446kts
22-Jul-17 16:44 53.218843 -56.909476 179 38017ft 447kts
22-Jul-17 16:45 53.094869 -56.894769 179 38014ft 447kts
22-Jul-17 16:46 52.971371 -56.880184 179 38008ft 448kts
22-Jul-17 16:47 52.848834 -56.865795 179 38011ft 448kts
22-Jul-17 16:48 52.724587 -56.851287 179 38025ft 449kts
22-Jul-17 16:49 52.600368 -56.836863 179 38034ft 449kts
22-Jul-17 16:50 52.476324 -56.822540 179 38040ft 449kts
22-Jul-17 16:51 52.351718 -56.808236 179 38043ft 449kts
22-Jul-17 16:52 52.227691 -56.794079 179 38045ft 449kts
22-Jul-17 16:53 52.103194 -56.779946 179 38043ft 449kts
22-Jul-17 16:54 51.979126 -56.765939 179 38037ft 449kts
22-Jul-17 16:55 51.856599 -56.752187 179 38039ft 450kts
22-Jul-17 16:56 51.731987 -56.738277 179 38057ft 450kts
22-Jul-17 16:57 51.607777 -56.724487 179 38071ft 450kts
22-Jul-17 16:58 51.483143 -56.710725 179 38083ft 450kts
22-Jul-17 16:59 51.358368 -56.697021 179 38090ft 450kts
22-Jul-17 17:00 51.233729 -56.683407 179 38095ft 450kts
22-Jul-17 17:01 51.109010 -56.669858 179 38100ft 451kts
22-Jul-17 17:02 50.984381 -56.656396 179 38111ft 451kts
22-Jul-17 17:03 50.862224 -56.643272 179 38131ft 453kts
22-Jul-17 17:04 50.736637 -56.629852 180 38161ft 454kts
22-Jul-17 17:05 50.610891 -56.616482 180 38186ft 455kts
22-Jul-17 17:06 50.484861 -56.603099 181 38209ft 456kts
22-Jul-17 17:07 50.358213 -56.589825 181 38228ft 457kts
22-Jul-17 17:08 50.231951 -56.576621 181 38246ft 457kts
22-Jul-17 17:09 50.105286 -56.563435 181 38259ft 457kts
22-Jul-17 17:10 49.978830 -56.550345 181 38271ft 458kts
22-Jul-17 17:11 49.853693 -56.537461 181 38290ft 458kts
22-Jul-17 17:12 49.726883 -56.524475 181 38320ft 458kts
22-Jul-17 17:13 49.600001 -56.511552 181 38336ft 458kts
22-Jul-17 17:14 49.473454 -56.498709 181 38354ft 457kts
22-Jul-17 17:15 49.347337 -56.485987 181 38372ft 456kts
22-Jul-17 17:16 49.221166 -56.473326 181 38386ft 455kts
22-Jul-17 17:17 49.094878 -56.460718 181 38403ft 455kts
22-Jul-17 17:18 48.968957 -56.448212 181 38419ft 455kts
22-Jul-17 17:19 48.844125 -56.435878 181 38441ft 454kts
22-Jul-17 17:20 48.718397 -56.423523 181 38475ft 454kts
22-Jul-17 17:21 48.592510 -56.411191 182 38498ft 454kts
22-Jul-17 17:22 48.466762 -56.398972 181 38532ft 454kts
22-Jul-17 17:23 48.341402 -56.386821 181 38563ft 454kts
22-Jul-17 17:24 48.215422 -56.374678 181 38597ft 454kts
22-Jul-17 17:25 48.089709 -56.362621 181 38632ft 455kts
22-Jul-17 17:26 47.963990 -56.350620 181 38659ft 455kts
22-Jul-17 17:27 47.841344 -56.338976 182 38648ft 456kts
22-Jul-17 17:28 47.715199 -56.327052 182 38639ft 456kts
22-Jul-17 17:29 47.588778 -56.315160 182 38627ft 457kts
22-Jul-17 17:30 47.462141 -56.303306 182 38614ft 457kts
22-Jul-17 17:31 47.335468 -56.291506 182 38599ft 457kts
22-Jul-17 17:32 47.209177 -56.279798 182 38584ft 458kts
22-Jul-17 17:33 47.082244 -56.268086 182 38564ft 458kts
22-Jul-17 17:34 46.955571 -56.256454 182 38540ft 458kts
22-Jul-17 17:35 46.832343 -56.245187 182 38519ft 458kts
22-Jul-17 17:36 46.705655 -56.233660 182 38508ft 458kts
22-Jul-17 17:37 46.578763 -56.222170 182 38496ft 457kts
22-Jul-17 17:38 46.452178 -56.210763 182 38485ft 457kts
22-Jul-17 17:39 46.325898 -56.199436 182 38474ft 457kts
22-Jul-17 17:40 46.199282 -56.188130 182 38458ft 457kts
22-Jul-17 17:41 46.072688 -56.176878 182 38440ft 457kts
22-Jul-17 17:42 45.946210 -56.165688 182 38421ft 457kts
22-Jul-17 17:43 45.821912 -56.154740 182 38416ft 457kts
22-Jul-17 17:44 45.695394 -56.143646 182 38417ft 458kts
22-Jul-17 17:45 45.568808 -56.132598 182 38414ft 458kts
22-Jul-17 17:46 45.441796 -56.121563 182 38409ft 458kts
22-Jul-17 17:47 45.315111 -56.110605 182 38401ft 458kts
22-Jul-17 17:48 45.188412 -56.099698 182 38394ft 458kts
22-Jul-17 17:49 45.061297 -56.088799 182 38380ft 458kts
22-Jul-17 17:50 44.934563 -56.077984 182 38364ft 458kts
22-Jul-17 17:51 44.807800 -56.067212 182 38365ft 459kts
22-Jul-17 17:52 44.680946 -56.056481 182 38369ft 459kts
22-Jul-17 17:53 44.553630 -56.045760 182 38373ft 459kts
22-Jul-17 17:54 44.426752 -56.035119 182 38371ft 459kts
22-Jul-17 17:55 44.299873 -56.024526 182 38367ft 459kts
22-Jul-17 17:56 44.172557 -56.013943 182 38360ft 459kts
22-Jul-17 17:57 44.045607 -56.003435 182 38350ft 459kts
22-Jul-17 17:58 43.918606 -55.992971 182 38341ft 459kts
22-Jul-17 17:59 43.791155 -55.982510 182 38349ft 459kts
22-Jul-17 18:00 43.664162 -55.972133 182 38356ft 459kts
22-Jul-17 18:01 43.537161 -55.961800 182 38363ft 459kts
22-Jul-17 18:02 43.409645 -55.951469 182 38369ft 460kts
22-Jul-17 18:03 43.282453 -55.941207 182 38371ft 460kts
22-Jul-17 18:04 43.155242 -55.930986 182 38370ft 460kts
22-Jul-17 18:05 43.027594 -55.920772 182 38364ft 460kts
22-Jul-17 18:06 42.900313 -55.910631 182 38355ft 460kts
22-Jul-17 18:07 42.774210 -55.900626 182 38372ft 460kts
22-Jul-17 18:08 42.645538 -55.890458 181 38385ft 461kts
22-Jul-17 18:09 42.517686 -55.880397 181 38394ft 461kts
22-Jul-17 18:10 42.389867 -55.870378 181 38402ft 461kts
22-Jul-17 18:11 42.262479 -55.860434 181 38405ft 461kts
22-Jul-17 18:12 42.135090 -55.850531 181 38404ft 461kts
22-Jul-17 18:13 42.007272 -55.840634 181 38400ft 461kts
22-Jul-17 18:14 41.879847 -55.830807 181 38398ft 461kts
22-Jul-17 18:15 41.752390 -55.821020 181 38418ft 461kts
22-Jul-17 18:16 41.624544 -55.811240 181 38437ft 461kts
22-Jul-17 18:17 41.497167 -55.801533 181 38448ft 460kts
22-Jul-17 18:18 41.369794 -55.791865 181 38457ft 460kts
22-Jul-17 18:19 41.241995 -55.782202 181 38463ft 460kts
22-Jul-17 18:20 41.114584 -55.772607 181 38466ft 460kts
22-Jul-17 18:21 40.987205 -55.763051 181 38465ft 460kts
22-Jul-17 18:22 40.860803 -55.753607 181 38470ft 461kts
22-Jul-17 18:23 40.733016 -55.744099 181 38496ft 460kts
22-Jul-17 18:24 40.605692 -55.734657 181 38515ft 460kts
22-Jul-17 18:25 40.477477 -55.724817 188 38418ft 465kts
22-Jul-17 18:26 40.348346 -55.715645 187 38467ft 468kts
22-Jul-17 18:27 40.218470 -55.706161 187 38516ft 470kts
22-Jul-17 18:28 40.087658 -55.696610 187 38562ft 472kts
22-Jul-17 18:29 39.957035 -55.687105 187 38604ft 473kts
22-Jul-17 18:30 39.826177 -55.677624 187 38646ft 473kts
22-Jul-17 18:31 39.695314 -55.668178 187 38687ft 473kts
22-Jul-17 18:32 39.563995 -55.658732 187 38728ft 473kts
22-Jul-17 18:33 39.433118 -55.649354 187 38770ft 473kts
22-Jul-17 18:34 39.302254 -55.640013 187 38812ft 473kts
22-Jul-17 18:35 39.171047 -55.630682 187 38856ft 473kts
22-Jul-17 18:36 39.040334 -55.621421 187 38901ft 472kts
22-Jul-17 18:37 38.909244 -55.612167 187 38946ft 472kts
22-Jul-17 18:38 38.778669 -55.602991 187 38993ft 472kts
22-Jul-17 18:39 38.648180 -55.593850 187 39040ft 472kts
22-Jul-17 18:40 38.517345 -55.584718 187 39089ft 471kts
22-Jul-17 18:41 38.392694 -55.576200 181 39296ft 435kts
22-Jul-17 18:42 38.274014 -55.567841 181 39224ft 424kts
22-Jul-17 18:43 38.157144 -55.559766 179 39173ft 419kts
22-Jul-17 18:44 38.038269 -55.551627 178 38719ft 434kts
22-Jul-17 18:45 37.917708 -55.543302 178 38724ft 437kts
22-Jul-17 18:46 37.796201 -55.534988 178 38762ft 440kts
22-Jul-17 18:47 37.673722 -55.526639 178 38796ft 442kts
22-Jul-17 18:48 37.551221 -55.518314 178 38819ft 443kts
22-Jul-17 18:49 37.428520 -55.507076 169 38827ft 446kts
22-Jul-17 18:50 37.323074 -55.426847 132 38859ft 460kts
22-Jul-17 18:51 37.275731 -55.277146 97 38897ft 480kts
22-Jul-17 18:52 37.308045 -55.113878 60 38931ft 497kts
22-Jul-17 18:53 37.403047 -54.987497 44 38971ft 503kts
22-Jul-17 18:54 37.489100 -54.886757 44 38980ft 504kts
22-Jul-17 18:55 37.744901 -54.589820 43 39025ft 507kts
22-Jul-17 18:56 38.059820 -54.229271 43 39112ft 509kts
22-Jul-17 18:57 38.380379 -53.867273 39 39081ft 514kts
22-Jul-17 18:58 38.650737 -53.566449 38 39132ft 516kts
22-Jul-17 18:59 38.978176 -53.206885 38 39200ft 516kts
22-Jul-17 19:00 39.309223 -52.848483 37 39199ft 516kts
22-Jul-17 19:01 39.641887 -52.493265 36 39253ft 516kts
22-Jul-17 19:02 39.977370 -52.139834 36 39304ft 517kts
22-Jul-17 19:03 40.315284 -51.788474 35 39316ft 517kts
22-Jul-17 19:04 40.656701 -51.437972 34 39374ft 517kts
22-Jul-17 19:05 40.999018 -51.090969 34 39406ft 517kts
22-Jul-17 19:06 41.398197 -50.691549 34 39424ft 517kts
22-Jul-17 19:07 41.688453 -50.404498 33 39488ft 517kts
22-Jul-17 19:08 42.037290 -50.063152 33 39510ft 517kts
22-Jul-17 19:09 42.387363 -49.722261 33 39519ft 517kts
22-Jul-17 19:10 42.735786 -49.376192 33 39595ft 517kts
22-Jul-17 19:11 43.083325 -49.023219 34 39615ft 517kts
22-Jul-17 19:12 43.428013 -48.665165 34 39624ft 518kts
22-Jul-17 19:13 43.768608 -48.303284 35 39693ft 518kts
22-Jul-17 19:14 44.109480 -47.932813 35 39714ft 518kts
22-Jul-17 19:15 44.449514 -47.554684 36 39733ft 519kts
22-Jul-17 19:16 44.786399 -47.171300 37 39771ft 519kts
22-Jul-17 19:17 45.121363 -46.781136 37 39813ft 520kts
22-Jul-17 19:18 45.453844 -46.384729 37 39856ft 520kts
22-Jul-17 19:19 45.785035 -45.980459 38 39849ft 520kts
22-Jul-17 19:20 46.112516 -45.571130 38 39906ft 519kts
22-Jul-17 19:21 46.437085 -45.155731 39 39904ft 519kts
22-Jul-17 19:22 46.760194 -44.732181 40 39924ft 519kts
22-Jul-17 19:23 47.079777 -44.303028 41 40016ft 519kts
22-Jul-17 19:24 47.396434 -43.867364 41 40003ft 517kts
22-Jul-17 19:25 47.709089 -43.426719 41 40044ft 516kts
22-Jul-17 19:26 48.019614 -42.978300 42 40067ft 516kts
22-Jul-17 19:27 48.326254 -42.524530 42 40094ft 516kts
22-Jul-17 19:28 48.628193 -42.066631 43 40106ft 516kts
22-Jul-17 19:29 48.932474 -41.593592 44 40151ft 516kts
22-Jul-17 19:30 49.230627 -41.118318 45 40181ft 516kts
22-Jul-17 19:31 49.526031 -40.635525 45 40189ft 516kts
22-Jul-17 19:32 49.818316 -40.145641 46 40226ft 516kts
22-Jul-17 19:33 50.106530 -39.650202 46 40274ft 516kts
22-Jul-17 19:34 50.394761 -39.141949 47 40276ft 516kts
22-Jul-17 19:35 50.677643 -38.630077 48 40295ft 516kts
22-Jul-17 19:36 50.954989 -38.115168 49 40339ft 516kts
22-Jul-17 19:37 51.229640 -37.592315 51 40331ft 521kts
22-Jul-17 19:38 51.506280 -37.051343 52 40345ft 524kts
22-Jul-17 19:39 51.781006 -36.499538 52 40406ft 525kts
22-Jul-17 19:40 52.052467 -35.939417 53 40485ft 525kts
22-Jul-17 19:41 52.317709 -35.377156 53 40470ft 523kts
22-Jul-17 19:42 52.576081 -34.815003 56 40497ft 508kts
22-Jul-17 19:43 52.827256 -34.252815 55 40514ft 506kts
22-Jul-17 19:44 53.072665 -33.689151 55 40568ft 505kts
22-Jul-17 19:45 53.318044 -33.110286 56 40549ft 505kts
22-Jul-17 19:46 53.556170 -32.535350 56 40547ft 505kts
22-Jul-17 19:47 53.783448 -31.928370 60 40574ft 504kts
22-Jul-17 19:48 53.983502 -31.362190 60 38017ft 498kts
22-Jul-17 19:49 54.131787 -30.932956 60 36881ft 469kts
22-Jul-17 19:50 54.254236 -30.572251 61 34902ft 469kts
22-Jul-17 19:51 54.388591 -30.177230 60 35010ft 469kts
22-Jul-17 19:52 54.517933 -29.799929 60 35011ft 469kts
22-Jul-17 19:53 54.644289 -29.425048 60 35015ft 461kts
22-Jul-17 19:54 54.772846 -29.037156 61 35012ft 469kts
22-Jul-17 19:55 54.913679 -28.604310 61 35015ft 469kts
22-Jul-17 19:56 55.055706 -28.159177 62 35015ft 468kts
22-Jul-17 19:57 55.196683 -27.708456 62 35011ft 468kts
22-Jul-17 19:58 55.335430 -27.255891 63 35011ft 468kts
22-Jul-17 19:59 55.473726 -26.795560 63 35013ft 468kts
22-Jul-17 20:00 55.608742 -26.336916 64 35014ft 467kts
22-Jul-17 20:01 55.744061 -25.867713 64 35017ft 468kts
22-Jul-17 20:02 55.882090 -25.378854 64 35015ft 467kts
22-Jul-17 20:03 56.018477 -24.885251 65 35015ft 467kts
22-Jul-17 20:04 56.153946 -24.384079 65 35012ft 467kts
22-Jul-17 20:05 56.289388 -23.871687 66 35012ft 467kts
22-Jul-17 20:06 56.422745 -23.355613 66 35013ft 466kts
22-Jul-17 20:07 56.555187 -22.831156 67 35013ft 466kts
22-Jul-17 20:08 56.681974 -22.317431 67 35013ft 466kts
22-Jul-17 20:09 56.806865 -21.799735 67 35014ft 466kts
22-Jul-17 20:10 56.931116 -21.272618 68 35014ft 465kts
22-Jul-17 20:11 57.005897 -20.718600 97 35018ft 457kts
22-Jul-17 20:12 56.963166 -20.092436 100 35014ft 456kts
22-Jul-17 20:13 56.910611 -19.412429 100 35015ft 456kts
22-Jul-17 20:14 56.853409 -18.723305 101 35015ft 456kts
22-Jul-17 20:15 56.792967 -18.042294 102 35014ft 456kts
22-Jul-17 20:16 56.725296 -17.327489 101 35014ft 486kts
22-Jul-17 20:17 56.651694 -16.597577 101 35015ft 488kts
22-Jul-17 20:18 56.573687 -15.869282 102 35013ft 489kts
22-Jul-17 20:19 56.491277 -15.142688 103 35012ft 491kts
22-Jul-17 20:20 56.404073 -14.414681 102 35016ft 492kts
22-Jul-17 20:21 56.312467 -13.688972 103 35015ft 494kts
22-Jul-17 20:22 56.216418 -12.965121 104 35013ft 495kts
22-Jul-17 20:23 56.115840 -12.242676 104 35012ft 496kts
22-Jul-17 20:24 56.010912 -11.523245 104 35000ft 498kts
22-Jul-17 20:25 55.901580 -10.806211 105 34962ft 499kts
22-Jul-17 20:26 55.793520 -10.126541 105 34956ft 500kts
22-Jul-17 20:27 55.676234 -9.418235 105 34962ft 501kts
22-Jul-17 20:28 55.557249 -8.727500 104 34960ft 498kts
22-Jul-17 20:29 55.440688 -8.076171 105 34930ft 484kts
22-Jul-17 20:30 55.346023 -7.562297 105 34931ft 415kts
22-Jul-17 20:31 55.264110 -7.129211 106 34932ft 423kts
22-Jul-17 20:32 55.134160 -6.665167 106 34934ft 451kts
22-Jul-17 20:33 55.030392 -6.154521 106 34935ft 451kts
22-Jul-17 20:34 54.925886 -5.645185 105 34881ft 450kts
22-Jul-17 20:35 54.824118 -5.154297 107 34881ft 451kts
22-Jul-17 20:36 54.713934 -4.636424 106 34924ft 450kts
22-Jul-17 20:37 54.606480 -4.147579 107 34931ft 450kts
22-Jul-17 20:38 54.497529 -3.672474 109 34903ft 435kts
22-Jul-17 20:39 54.389762 -3.203262 111 34905ft 433kts
22-Jul-17 20:40 54.275950 -2.716055 109 34904ft 468kts
22-Jul-17 20:41 54.155071 -2.207922 110 34906ft 467kts
22-Jul-17 20:42 54.030136 -1.704456 109 34907ft 465kts
22-Jul-17 20:43 53.912154 -1.232668 111 34908ft 465kts
22-Jul-17 20:44 53.794677 -0.778311 111 34903ft 465kts
22-Jul-17 20:45 53.671864 -0.306493 112 34903ft 466kts
22-Jul-17 20:46 53.540605 0.183241 112 34904ft 466kts
22-Jul-17 20:47 53.454057 0.501111 113 34905ft 467kts
22-Jul-17 20:48 53.400250 0.696783 112 33745ft 459kts
22-Jul-17 20:49 53.390829 0.902529 72 31570ft 442kts
22-Jul-17 20:50 53.455280 1.065238 31 29514ft 412kts
22-Jul-17 20:51 53.558726 1.121109 4 27526ft 387kts
22-Jul-17 20:52 53.666405 1.147353 4 24818ft 393kts
22-Jul-17 20:53 53.772422 1.173194 4 22802ft 380kts
22-Jul-17 20:54 53.875262 1.198313 5 20793ft 369kts
22-Jul-17 20:55 53.970144 1.249616 40 18818ft 369kts
22-Jul-17 20:56 54.010115 1.407590 87 16874ft 372kts
22-Jul-17 20:57 53.961747 1.551124 149 14988ft 363kts
22-Jul-17 20:58 53.876352 1.637981 149 13212ft 353kts
22-Jul-17 20:59 53.794792 1.720850 150 11512ft 344kts
22-Jul-17 21:00 53.714572 1.803182 150 9842ft 335kts
22-Jul-17 21:01 53.635804 1.882898 150 8204ft 327kts
22-Jul-17 21:02 53.559007 1.960600 150 6610ft 319kts
22-Jul-17 21:03 53.486820 2.033820 150 5788ft 277kts
22-Jul-17 21:04 53.421874 2.100072 150 4991ft 274kts
22-Jul-17 21:05 53.356753 2.166374 150 4980ft 274kts
22-Jul-17 21:06 53.291751 2.232479 150 4978ft 273kts
22-Jul-17 21:07 53.226952 2.298269 150 4978ft 273kts
22-Jul-17 21:08 53.162232 2.364167 150 4977ft 263kts
22-Jul-17 21:09 53.100474 2.428812 150 4977ft 262kts
22-Jul-17 21:10 53.063045 2.531332 108 4981ft 271kts
22-Jul-17 21:11 53.042773 2.651288 109 4977ft 270kts
22-Jul-17 21:12 53.025914 2.751135 109 4975ft 270kts
22-Jul-17 21:13 53.002112 2.891759 109 4976ft 270kts
22-Jul-17 21:14 52.985295 2.991695 108 4976ft 270kts
22-Jul-17 21:15 52.964883 3.111811 108 4976ft 270kts
22-Jul-17 21:16 52.944429 3.231579 110 4976ft 270kts
22-Jul-17 21:17 52.918283 3.347864 113 4976ft 269kts
22-Jul-17 21:18 52.883345 3.480096 121 5006ft 267kts
22-Jul-17 21:19 52.849013 3.588231 120 5006ft 267kts
22-Jul-17 21:20 52.820101 3.679555 121 5005ft 267kts
22-Jul-17 21:21 52.785862 3.787585 121 5006ft 267kts
22-Jul-17 21:22 52.751238 3.896560 121 5006ft 268kts
22-Jul-17 21:23 52.717089 4.004225 121 4949ft 254kts
22-Jul-17 21:24 52.685831 4.103783 121 4145ft 243kts
22-Jul-17 21:25 52.654886 4.201850 121 3176ft 240kts
22-Jul-17 21:26 52.624065 4.299232 121 3006ft 240kts
22-Jul-17 21:27 52.594766 4.392318 121 2978ft 215kts
22-Jul-17 21:28 52.567708 4.479278 121 3005ft 213kts
22-Jul-17 21:29 52.540761 4.565738 121 3005ft 213kts
22-Jul-17 21:30 52.513853 4.651949 121 3005ft 213kts
22-Jul-17 21:31 52.487001 4.737949 121 3004ft 213kts
22-Jul-17 21:32 52.459838 4.824481 125 3004ft 212kts
22-Jul-17 21:33 52.416215 4.831157 236 2971ft 186kts
22-Jul-17 21:34 52.396433 4.771388 225 2601ft 129kts
22-Jul-17 21:35 52.364089 4.744728 192 1174ft 139kts
22-Jul-17 21:36 52.327844 4.739771 184 3ft 110kts
22-Jul-17 21:37 52.313146 4.742941 160 -1ft 19kts
22-Jul-17 21:38 52.312864 4.743351 117 -1ft 0kts
22-Jul-17 21:39 52.312864 4.743351 117 -1ft 0kts
22-Jul-17 21:40 35.046903 -106.616389 11 5313ft 0kts
22-Jul-17 21:41 35.046903 -106.616389 11 5313ft 0kts
22-Jul-17 21:42 35.046903 -106.616389 11 5313ft 0kts

Navigation Log

Ident Type
Flight plan parsing failed, navigation log unavailable